createdAt,value
2023-02-12T00:01:41.272Z,72.61
2023-02-12T00:04:09.590Z,72.96
2023-02-12T00:06:40.125Z,73.00
2023-02-12T00:09:08.345Z,73.02
2023-02-12T00:11:38.014Z,73.06
2023-02-12T00:14:06.447Z,73.00
2023-02-12T00:16:38.671Z,73.14
2023-02-12T00:19:09.573Z,73.07
2023-02-12T00:21:38.362Z,73.10
2023-02-12T00:24:06.892Z,73.00
2023-02-12T00:26:35.861Z,72.99
2023-02-12T00:29:04.332Z,72.95
2023-02-12T00:31:33.198Z,72.92
2023-02-12T00:34:01.482Z,73.07
2023-02-12T00:36:30.789Z,73.04
2023-02-12T00:38:59.595Z,73.12
2023-02-12T00:41:28.108Z,73.10
2023-02-12T00:43:56.928Z,73.07
2023-02-12T00:46:25.580Z,73.07
2023-02-12T00:48:55.374Z,73.16
2023-02-12T00:51:23.977Z,73.19
2023-02-12T00:53:53.172Z,73.16
2023-02-12T00:56:21.389Z,73.19
2023-02-12T00:58:50.978Z,73.28
2023-02-12T01:01:19.324Z,73.15
2023-02-12T01:03:48.283Z,73.49
2023-02-12T01:06:16.578Z,73.50
2023-02-12T01:08:44.954Z,73.49
2023-02-12T01:11:13.985Z,73.64
2023-02-12T01:13:44.500Z,73.54
2023-02-12T01:16:21.075Z,73.63
2023-02-12T01:18:53.122Z,73.64
2023-02-12T01:21:25.865Z,73.63
2023-02-12T01:23:54.220Z,73.61
2023-02-12T01:26:22.667Z,73.56
2023-02-12T01:28:54.025Z,73.21
2023-02-12T01:31:24.165Z,72.86
2023-02-12T01:33:54.732Z,72.67
2023-02-12T01:36:23.227Z,72.32
2023-02-12T01:38:51.834Z,72.18
2023-02-12T01:41:24.672Z,71.83
2023-02-12T01:44:26.307Z,71.85
2023-02-12T01:47:00.849Z,71.84
2023-02-12T01:49:34.033Z,71.63
2023-02-12T01:52:07.177Z,71.60
2023-02-12T01:54:36.177Z,71.43
2023-02-12T01:57:05.523Z,71.33
2023-02-12T01:59:35.707Z,71.11
2023-02-12T02:02:05.562Z,70.91
2023-02-12T02:04:42.420Z,70.84
2023-02-12T02:07:12.778Z,70.72
2023-02-12T02:09:41.731Z,70.54
2023-02-12T02:12:28.867Z,70.38
2023-02-12T02:15:00.181Z,70.07
2023-02-12T02:17:53.840Z,69.70
2023-02-12T02:20:47.430Z,69.51
2023-02-12T02:23:57.436Z,69.14
2023-02-12T02:26:41.006Z,68.95
2023-02-12T02:29:27.671Z,68.88
2023-02-12T02:32:25.982Z,68.85
2023-02-12T02:35:02.197Z,68.85
2023-02-12T02:37:39.669Z,68.94
2023-02-12T02:40:21.201Z,68.95
2023-02-12T02:42:52.628Z,68.74
2023-02-12T02:45:36.765Z,68.36
2023-02-12T02:48:08.316Z,67.78
2023-02-12T02:50:38.589Z,67.63
2023-02-12T02:53:10.452Z,67.77
2023-02-12T02:55:42.816Z,68.00
2023-02-12T02:58:14.965Z,67.71
2023-02-12T03:00:47.538Z,67.15
2023-02-12T03:03:16.144Z,66.98
2023-02-12T03:05:47.486Z,66.45
2023-02-12T03:08:24.428Z,65.86
2023-02-12T03:11:01.214Z,65.44
2023-02-12T03:13:36.931Z,64.79
2023-02-12T03:16:10.014Z,64.46
2023-02-12T03:18:44.480Z,64.06
2023-02-12T03:21:15.273Z,63.53
2023-02-12T03:23:54.791Z,63.24
2023-02-12T03:26:26.172Z,63.07
2023-02-12T03:28:54.848Z,62.87
2023-02-12T03:31:26.161Z,62.68
2023-02-12T03:34:16.693Z,62.85
2023-02-12T03:37:05.405Z,62.90
2023-02-12T03:39:50.178Z,63.18
2023-02-12T03:42:42.054Z,63.42
2023-02-12T03:45:22.914Z,63.78
2023-02-12T03:48:09.313Z,63.86
2023-02-12T03:50:46.873Z,63.73
2023-02-12T03:53:15.948Z,64.00
2023-02-12T03:55:45.911Z,63.28
2023-02-12T03:58:17.859Z,62.94
2023-02-12T04:00:46.206Z,62.48
2023-02-12T04:03:14.724Z,62.13
2023-02-12T04:05:43.212Z,61.54
2023-02-12T04:08:11.919Z,61.09
2023-02-12T04:10:47.370Z,60.85
2023-02-12T04:13:21.876Z,60.58
2023-02-12T04:15:58.511Z,60.21
2023-02-12T04:18:40.866Z,59.89
2023-02-12T04:21:39.702Z,59.62
2023-02-12T04:24:39.765Z,59.26
2023-02-12T04:27:26.758Z,59.08
2023-02-12T04:29:59.337Z,59.24
2023-02-12T04:32:40.243Z,59.36
2023-02-12T04:35:28.339Z,59.65
2023-02-12T04:38:10.433Z,59.78
2023-02-12T04:40:39.697Z,59.87
2023-02-12T04:43:08.402Z,59.99
2023-02-12T04:45:37.193Z,60.08
2023-02-12T04:48:05.990Z,60.09
2023-02-12T04:50:42.756Z,59.82
2023-02-12T04:53:11.027Z,59.36
2023-02-12T04:55:39.863Z,58.79
2023-02-12T04:58:08.209Z,58.57
2023-02-12T05:00:37.085Z,58.53
2023-02-12T05:03:05.582Z,57.94
2023-02-12T05:05:35.682Z,56.86
2023-02-12T05:08:03.999Z,56.53
2023-02-12T05:10:32.695Z,56.05
2023-02-12T05:13:07.040Z,56.09
2023-02-12T05:15:39.810Z,55.58
2023-02-12T05:18:08.161Z,55.14
2023-02-12T05:20:37.707Z,54.55
2023-02-12T05:23:06.389Z,54.43
2023-02-12T05:25:35.130Z,54.11
2023-02-12T05:28:03.448Z,53.86
2023-02-12T05:30:31.897Z,53.77
2023-02-12T05:33:00.605Z,53.83
2023-02-12T05:35:28.769Z,53.79
2023-02-12T05:37:57.312Z,53.70
2023-02-12T05:40:25.864Z,53.74
2023-02-12T05:42:54.382Z,53.52
2023-02-12T05:45:28.099Z,53.19
2023-02-12T05:47:57.081Z,53.33
2023-02-12T05:50:25.428Z,52.91
2023-02-12T05:53:01.633Z,53.27
2023-02-12T05:55:30.279Z,53.28
2023-02-12T05:57:59.060Z,53.29
2023-02-12T06:00:27.637Z,53.27
2023-02-12T06:02:56.392Z,53.23
2023-02-12T06:05:24.723Z,53.22
2023-02-12T06:07:53.362Z,53.36
2023-02-12T06:10:21.591Z,53.52
2023-02-12T06:12:54.615Z,53.45
2023-02-12T06:15:23.118Z,53.58
2023-02-12T06:17:51.802Z,53.88
2023-02-12T06:20:20.659Z,53.77
2023-02-12T06:22:49.187Z,53.66
2023-02-12T06:25:17.528Z,53.55
2023-02-12T06:27:46.664Z,53.85
2023-02-12T06:30:15.678Z,54.23
2023-02-12T06:32:44.560Z,54.58
2023-02-12T06:35:12.828Z,54.58
2023-02-12T06:37:41.326Z,54.73
2023-02-12T06:40:10.041Z,54.11
2023-02-12T06:42:38.259Z,53.29
2023-02-12T06:45:07.117Z,52.96
2023-02-12T06:47:35.346Z,52.07
2023-02-12T06:50:03.806Z,51.26
2023-02-12T06:52:32.277Z,51.53
2023-02-12T06:55:00.861Z,51.49
2023-02-12T06:57:30.140Z,51.12
2023-02-12T07:00:00.625Z,50.58
2023-02-12T07:02:29.026Z,50.71
2023-02-12T07:04:57.469Z,50.86
2023-02-12T07:07:25.759Z,50.45
2023-02-12T07:09:53.996Z,51.09
2023-02-12T07:12:27.658Z,50.84
2023-02-12T07:14:56.412Z,50.86
2023-02-12T07:17:25.116Z,50.61
2023-02-12T07:19:53.762Z,50.18
2023-02-12T07:22:22.407Z,50.06
2023-02-12T07:24:50.695Z,50.07
2023-02-12T07:27:19.158Z,50.14
2023-02-12T07:29:47.667Z,49.47
2023-02-12T07:32:16.283Z,49.57
2023-02-12T07:34:44.988Z,49.58
2023-02-12T07:37:13.798Z,49.26
2023-02-12T07:39:43.406Z,48.97
2023-02-12T07:42:15.372Z,49.53
2023-02-12T07:44:46.726Z,49.43
2023-02-12T07:47:18.395Z,49.93
2023-02-12T07:49:47.302Z,49.98
2023-02-12T07:52:16.466Z,49.73
2023-02-12T07:54:46.096Z,49.31
2023-02-12T07:57:14.451Z,49.13
2023-02-12T07:59:43.181Z,49.11
2023-02-12T08:02:11.788Z,48.72
2023-02-12T08:04:41.751Z,48.58
2023-02-12T08:07:09.994Z,48.36
2023-02-12T08:09:39.111Z,48.36
2023-02-12T08:12:07.720Z,48.81
2023-02-12T08:28:03.053Z,47.96
2023-02-12T08:30:32.329Z,46.67
2023-02-12T08:33:02.075Z,47.06
2023-02-12T08:35:30.534Z,47.25
2023-02-12T08:37:59.598Z,47.77
2023-02-12T08:40:27.911Z,47.55
2023-02-12T08:42:56.634Z,47.47
2023-02-12T08:45:24.906Z,47.67
2023-02-12T08:47:53.846Z,47.75
2023-02-12T08:50:22.095Z,47.66
2023-02-12T08:52:50.419Z,47.45
2023-02-12T08:55:21.451Z,47.00
2023-02-12T08:57:50.085Z,46.78
2023-02-12T09:00:19.435Z,46.69
2023-02-12T09:02:48.842Z,46.85
2023-02-12T09:05:17.352Z,46.39
2023-02-12T09:07:47.147Z,46.17
2023-02-12T09:10:15.905Z,46.34
2023-02-12T09:12:44.997Z,45.87
2023-02-12T09:15:13.550Z,44.49
2023-02-12T09:17:43.944Z,44.46
2023-02-12T09:20:12.856Z,44.54
2023-02-12T09:22:41.137Z,44.98
2023-02-12T09:25:10.889Z,45.34
2023-02-12T09:27:39.146Z,45.26
2023-02-12T09:30:09.133Z,45.18
2023-02-12T09:32:37.376Z,45.47
2023-02-12T09:35:07.613Z,45.76
2023-02-12T09:37:44.785Z,45.34
2023-02-12T09:40:36.240Z,45.03
2023-02-12T09:43:10.903Z,44.90
2023-02-12T09:46:04.404Z,45.13
2023-02-12T09:48:54.253Z,45.08
2023-02-12T09:51:22.830Z,45.03
2023-02-12T09:53:51.390Z,44.39
2023-02-12T09:56:21.545Z,44.26
2023-02-12T09:59:00.924Z,43.94
2023-02-12T10:01:29.800Z,44.09
2023-02-12T10:04:02.219Z,43.82
2023-02-12T10:06:37.558Z,43.83
2023-02-12T10:09:07.139Z,43.59
2023-02-12T10:11:56.787Z,43.39
2023-02-12T10:14:46.218Z,43.24
2023-02-12T10:17:34.243Z,42.96
2023-02-12T10:20:16.376Z,43.23
2023-02-12T10:22:57.196Z,42.80
2023-02-12T10:25:30.822Z,42.30
2023-02-12T10:39:27.749Z,41.27
2023-02-12T10:42:12.171Z,40.72
2023-02-12T10:44:41.257Z,41.26
2023-02-12T10:47:22.999Z,40.86
2023-02-12T10:49:56.695Z,40.69
2023-02-12T10:52:30.992Z,40.60
2023-02-12T10:54:59.300Z,40.34
2023-02-12T10:57:29.985Z,40.41
2023-02-12T11:00:26.372Z,40.33
2023-02-12T11:03:02.115Z,39.58
2023-02-12T11:05:31.518Z,39.77
2023-02-12T11:07:59.789Z,39.75
2023-02-12T11:10:28.816Z,39.46
2023-02-12T11:12:59.020Z,38.72
2023-02-12T11:15:31.599Z,38.75
2023-02-12T11:18:04.424Z,38.19
2023-02-12T11:20:42.013Z,37.72
2023-02-12T11:36:59.567Z,37.86
2023-02-12T11:39:29.025Z,37.40
2023-02-12T11:41:59.961Z,37.54
2023-02-12T11:44:36.499Z,37.96
2023-02-12T11:59:42.643Z,37.15
2023-02-12T12:02:25.409Z,35.81
2023-02-12T12:04:54.758Z,34.88
2023-02-12T12:07:28.103Z,35.26
2023-02-12T12:10:15.253Z,36.02
2023-02-12T12:12:48.191Z,36.20
2023-02-12T12:15:44.152Z,36.25
2023-02-12T12:18:44.094Z,36.79
2023-02-12T12:21:31.714Z,37.21
2023-02-12T12:24:03.990Z,36.03
2023-02-12T12:26:33.978Z,35.36
2023-02-12T12:29:06.244Z,35.19
2023-02-12T12:31:37.496Z,34.92
2023-02-12T12:34:16.636Z,35.01
2023-02-12T12:36:51.887Z,35.47
2023-02-12T12:39:42.231Z,35.86
2023-02-12T12:42:31.292Z,35.70
2023-02-12T12:45:09.308Z,35.88
2023-02-12T12:47:58.105Z,35.33
2023-02-12T12:50:50.201Z,35.12
2023-02-12T12:53:23.176Z,34.47
2023-02-12T12:56:25.949Z,34.66
2023-02-12T12:59:30.845Z,34.58
2023-02-12T13:02:29.154Z,35.06
2023-02-12T13:05:20.426Z,34.70
2023-02-12T13:08:18.025Z,34.55
2023-02-12T13:10:57.811Z,34.49
2023-02-12T13:13:31.574Z,34.38
2023-02-12T13:16:29.715Z,33.83
2023-02-12T13:31:53.582Z,33.35
2023-02-12T13:34:22.089Z,33.41
2023-02-12T13:50:37.672Z,33.30
2023-02-12T13:53:40.148Z,33.44
2023-02-12T13:56:31.605Z,33.96
2023-02-12T14:10:22.641Z,32.23
2023-02-12T14:12:50.073Z,32.34
2023-02-12T14:15:31.251Z,32.66
2023-02-12T14:18:07.560Z,33.21
2023-02-12T14:20:36.373Z,33.47
2023-02-12T14:23:24.168Z,33.57
2023-02-12T14:37:37.793Z,33.49
2023-02-12T14:40:43.277Z,33.24
2023-02-12T14:43:56.258Z,33.43
2023-02-12T14:46:24.838Z,33.98
2023-02-12T14:48:59.586Z,34.26
2023-02-12T14:51:47.092Z,34.15
2023-02-12T14:54:19.304Z,34.16
2023-02-12T14:56:49.085Z,34.34
2023-02-12T14:59:21.475Z,34.63
2023-02-12T15:01:51.421Z,34.56
2023-02-12T15:04:28.048Z,34.85
2023-02-12T15:07:10.704Z,34.83
2023-02-12T15:10:02.999Z,34.97
2023-02-12T15:12:35.987Z,34.69
2023-02-12T15:15:15.542Z,34.61
2023-02-12T15:17:51.692Z,34.83
2023-02-12T15:20:21.418Z,34.96
2023-02-12T15:22:49.997Z,35.27
2023-02-12T15:25:25.451Z,35.53
2023-02-12T15:28:27.632Z,35.65
2023-02-12T15:30:56.231Z,35.86
2023-02-12T15:33:35.408Z,36.13
2023-02-12T15:36:03.850Z,36.22
2023-02-12T15:38:36.702Z,36.48
2023-02-12T15:41:05.883Z,36.60
2023-02-12T15:43:35.619Z,36.75
2023-02-12T15:46:06.547Z,36.80
2023-02-12T15:48:36.107Z,36.96
2023-02-12T15:51:34.449Z,37.08
2023-02-12T15:54:05.844Z,37.14
2023-02-12T15:56:34.155Z,37.24
2023-02-12T15:59:04.508Z,36.91
2023-02-12T16:01:35.396Z,36.99
2023-02-12T16:04:07.476Z,36.79
2023-02-12T16:06:37.025Z,36.98
2023-02-12T16:09:14.530Z,37.06
2023-02-12T16:11:45.474Z,37.15
2023-02-12T16:14:22.990Z,37.52
2023-02-12T16:16:54.954Z,37.65
2023-02-12T16:19:25.822Z,37.65
2023-02-12T16:22:04.385Z,37.62
2023-02-12T16:24:46.741Z,37.74
2023-02-12T16:27:19.075Z,37.99
2023-02-12T16:29:55.443Z,37.83
2023-02-12T16:32:37.618Z,37.94
2023-02-12T16:35:23.533Z,37.76
2023-02-12T16:37:56.634Z,38.25
2023-02-12T16:40:27.287Z,38.10
2023-02-12T16:42:57.216Z,38.04
2023-02-12T16:45:28.619Z,38.21
2023-02-12T16:48:11.655Z,38.11
2023-02-12T16:50:46.372Z,38.35
2023-02-12T16:53:27.463Z,38.21
2023-02-12T16:55:55.992Z,38.52
2023-02-12T16:58:26.107Z,38.32
2023-02-12T17:00:55.699Z,38.44
2023-02-12T17:03:24.959Z,38.53
2023-02-12T17:05:54.761Z,38.61
2023-02-12T17:08:24.402Z,38.73
2023-02-12T17:10:52.867Z,38.67
2023-02-12T17:13:23.782Z,38.81
2023-02-12T17:15:55.665Z,38.69
2023-02-12T17:18:24.311Z,38.72
2023-02-12T17:20:57.027Z,38.54
2023-02-12T17:23:25.289Z,38.77
2023-02-12T17:25:54.171Z,38.68
2023-02-12T17:28:23.312Z,38.91
2023-02-12T17:30:53.086Z,38.78
2023-02-12T17:33:22.976Z,38.86
2023-02-12T17:35:51.656Z,39.04
2023-02-12T17:38:20.523Z,38.89
2023-02-12T17:40:50.460Z,38.89
2023-02-12T17:43:20.099Z,38.96
2023-02-12T17:45:48.370Z,39.06
2023-02-12T17:48:17.853Z,38.92
2023-02-12T17:50:46.442Z,39.09
2023-02-12T17:53:15.176Z,39.21
2023-02-12T17:55:44.393Z,38.90
2023-02-12T17:58:13.043Z,38.94
2023-02-12T18:00:41.607Z,39.28
2023-02-12T18:03:11.213Z,39.35
2023-02-12T18:05:43.078Z,39.41
2023-02-12T18:08:11.665Z,39.32
2023-02-12T18:10:43.525Z,39.50
2023-02-12T18:13:14.366Z,39.32
2023-02-12T18:15:43.736Z,39.48
2023-02-12T18:18:12.370Z,39.66
2023-02-12T18:20:41.251Z,39.67
2023-02-12T18:23:11.475Z,39.88
2023-02-12T18:25:44.160Z,39.80
2023-02-12T18:28:12.661Z,39.98
2023-02-12T18:30:43.844Z,40.17
2023-02-12T18:33:12.627Z,40.27
2023-02-12T18:35:42.093Z,40.22
2023-02-12T18:38:12.103Z,40.35
2023-02-12T18:40:41.629Z,40.61
2023-02-12T18:43:09.868Z,40.75
2023-02-12T18:45:39.964Z,40.83
2023-02-12T18:48:09.640Z,40.98
2023-02-12T18:50:38.425Z,41.00
2023-02-12T18:53:06.955Z,41.16
2023-02-12T18:55:37.904Z,41.37
2023-02-12T18:58:06.235Z,41.58
2023-02-12T19:00:34.914Z,41.68
2023-02-12T19:03:03.700Z,41.81
2023-02-12T19:05:32.902Z,42.12
2023-02-12T19:08:01.599Z,42.24
2023-02-12T19:10:30.323Z,42.50
2023-02-12T19:12:59.527Z,42.77
2023-02-12T19:15:32.894Z,42.91
2023-02-12T19:18:01.455Z,43.01
2023-02-12T19:20:29.936Z,43.19
2023-02-12T19:22:58.515Z,43.31
2023-02-12T19:25:27.004Z,43.33
2023-02-12T19:27:55.813Z,43.63
2023-02-12T19:30:24.586Z,43.75
2023-02-12T19:32:53.953Z,43.85
2023-02-12T19:35:22.374Z,43.77
2023-02-12T19:37:53.829Z,43.86
2023-02-12T19:40:22.619Z,43.88
2023-02-12T19:42:50.902Z,43.90
2023-02-12T19:45:19.586Z,43.79
2023-02-12T19:47:48.071Z,43.70
2023-02-12T19:50:16.863Z,43.92
2023-02-12T19:52:45.554Z,43.77
2023-02-12T19:55:15.451Z,44.10
2023-02-12T19:57:43.833Z,44.05
2023-02-12T20:00:13.623Z,44.44
2023-02-12T20:02:46.025Z,44.49
2023-02-12T20:05:14.761Z,44.70
2023-02-12T20:07:45.465Z,44.70
2023-02-12T20:10:13.956Z,44.74
2023-02-12T20:12:42.288Z,44.83
2023-02-12T20:15:15.315Z,44.82
2023-02-12T20:17:44.036Z,44.54
2023-02-12T20:20:12.844Z,44.70
2023-02-12T20:22:43.001Z,44.81
2023-02-12T20:25:12.491Z,44.61
2023-02-12T20:27:41.777Z,44.77
2023-02-12T20:30:10.728Z,44.91
2023-02-12T20:32:39.028Z,44.91
2023-02-12T20:35:07.549Z,45.12
2023-02-12T20:37:36.280Z,45.29
2023-02-12T20:40:05.518Z,45.49
2023-02-12T20:42:34.058Z,45.56
2023-02-12T20:45:02.576Z,45.72
2023-02-12T20:47:31.324Z,45.86
2023-02-12T20:50:00.362Z,45.99
2023-02-12T20:52:28.917Z,46.08
2023-02-12T20:54:58.124Z,46.28
2023-02-12T20:57:26.709Z,46.32
2023-02-12T20:59:55.598Z,46.27
2023-02-12T21:02:23.872Z,46.45
2023-02-12T21:04:52.461Z,46.47
2023-02-12T21:07:22.374Z,46.43
2023-02-12T21:09:50.652Z,46.61
2023-02-12T21:12:20.473Z,46.51
2023-02-12T21:14:49.461Z,46.63
2023-02-12T21:17:20.766Z,46.74
2023-02-12T21:19:48.968Z,46.71
2023-02-12T21:22:17.987Z,46.94
2023-02-12T21:24:46.467Z,46.89
2023-02-12T21:27:14.948Z,47.10
2023-02-12T21:29:43.357Z,47.05
2023-02-12T21:32:12.882Z,47.19
2023-02-12T21:34:42.138Z,47.08
2023-02-12T21:37:10.725Z,47.34
2023-02-12T21:39:40.036Z,47.35
2023-02-12T21:42:08.517Z,47.42
2023-02-12T21:44:39.131Z,47.29
2023-02-12T21:47:08.978Z,47.36
2023-02-12T21:49:37.158Z,47.32
2023-02-12T21:52:06.943Z,47.43
2023-02-12T21:54:35.648Z,47.48
2023-02-12T21:57:04.125Z,47.49
2023-02-12T21:59:32.719Z,47.41
2023-02-12T22:02:02.425Z,47.45
2023-02-12T22:04:33.664Z,47.51
2023-02-12T22:07:03.767Z,47.73
2023-02-12T22:09:35.545Z,47.73
2023-02-12T22:12:05.192Z,47.89
2023-02-12T22:14:34.377Z,47.91
2023-02-12T22:17:05.088Z,48.28
2023-02-12T22:19:35.012Z,48.36
2023-02-12T22:22:03.798Z,48.29
2023-02-12T22:24:32.809Z,48.41
2023-02-12T22:27:01.010Z,48.72
2023-02-12T22:29:29.723Z,48.61
2023-02-12T22:31:58.001Z,48.82
2023-02-12T22:34:26.313Z,48.88
2023-02-12T22:36:54.701Z,49.11
2023-02-12T22:39:23.280Z,48.84
2023-02-12T22:41:51.760Z,48.91
2023-02-12T22:44:21.285Z,48.91
2023-02-12T22:46:50.567Z,49.08
2023-02-12T22:49:19.574Z,49.10
2023-02-12T22:51:47.950Z,49.18
2023-02-12T22:54:17.647Z,49.41
2023-02-12T22:56:45.952Z,49.29
2023-02-12T22:59:14.273Z,49.34
2023-02-12T23:01:45.368Z,49.37
2023-02-12T23:04:17.994Z,49.34
2023-02-12T23:06:46.642Z,49.42
2023-02-12T23:09:17.907Z,49.52
2023-02-12T23:11:46.974Z,49.56
2023-02-12T23:14:17.784Z,49.64
2023-02-12T23:16:46.666Z,49.57
2023-02-12T23:19:15.163Z,49.80
2023-02-12T23:21:43.821Z,49.81
2023-02-12T23:24:14.136Z,50.01
2023-02-12T23:26:42.604Z,50.16
2023-02-12T23:29:11.170Z,50.38
2023-02-12T23:31:41.629Z,50.51
2023-02-12T23:34:10.733Z,50.49
2023-02-12T23:36:39.449Z,50.58
2023-02-12T23:39:09.783Z,50.77
2023-02-12T23:41:40.811Z,50.99
2023-02-12T23:44:09.757Z,51.33
2023-02-12T23:46:38.169Z,51.44
2023-02-12T23:49:06.754Z,51.55
2023-02-12T23:51:35.260Z,51.80
2023-02-12T23:54:03.929Z,51.87
2023-02-12T23:56:32.316Z,51.85
2023-02-12T23:59:01.815Z,51.98
